sensor_id;sensor_type;location;lat;lon;timestamp;P1;durP1;ratioP1;P2;durP2;ratioP2
6420;SDS011;3243;50.958;7.012;2024-03-29T00:01:51;3.90;;;1.70;;
6420;SDS011;3243;50.958;7.012;2024-03-29T00:04:17;3.07;;;1.50;;
6420;SDS011;3243;50.958;7.012;2024-03-29T00:06:43;3.17;;;1.37;;
6420;SDS011;3243;50.958;7.012;2024-03-29T00:09:10;4.97;;;2.03;;
6420;SDS011;3243;50.958;7.012;2024-03-29T00:11:36;3.10;;;1.40;;
6420;SDS011;3243;50.958;7.012;2024-03-29T00:14:01;3.03;;;1.40;;
6420;SDS011;3243;50.958;7.012;2024-03-29T00:16:27;1.97;;;1.50;;
6420;SDS011;3243;50.958;7.012;2024-03-29T00:18:53;3.93;;;1.50;;
6420;SDS011;3243;50.958;7.012;2024-03-29T00:21:20;1.87;;;1.40;;
6420;SDS011;3243;50.958;7.012;2024-03-29T00:23:45;4.77;;;2.73;;
6420;SDS011;3243;50.958;7.012;2024-03-29T00:26:12;4.10;;;1.60;;
6420;SDS011;3243;50.958;7.012;2024-03-29T00:28:38;3.23;;;1.50;;
6420;SDS011;3243;50.958;7.012;2024-03-29T00:31:04;2.77;;;1.27;;
6420;SDS011;3243;50.958;7.012;2024-03-29T00:33:30;3.43;;;1.40;;
6420;SDS011;3243;50.958;7.012;2024-03-29T00:35:56;2.70;;;1.40;;
6420;SDS011;3243;50.958;7.012;2024-03-29T00:38:22;2.43;;;1.20;;
6420;SDS011;3243;50.958;7.012;2024-03-29T00:40:48;2.43;;;1.40;;
6420;SDS011;3243;50.958;7.012;2024-03-29T00:43:14;3.20;;;1.60;;
6420;SDS011;3243;50.958;7.012;2024-03-29T00:45:40;3.57;;;1.40;;
6420;SDS011;3243;50.958;7.012;2024-03-29T00:48:06;2.17;;;1.43;;
6420;SDS011;3243;50.958;7.012;2024-03-29T00:50:33;2.03;;;1.43;;
6420;SDS011;3243;50.958;7.012;2024-03-29T00:52:59;1.67;;;1.20;;
6420;SDS011;3243;50.958;7.012;2024-03-29T00:55:25;2.37;;;1.40;;
6420;SDS011;3243;50.958;7.012;2024-03-29T00:57:51;2.37;;;1.40;;
6420;SDS011;3243;50.958;7.012;2024-03-29T01:00:17;3.83;;;1.70;;
6420;SDS011;3243;50.958;7.012;2024-03-29T01:02:43;1.60;;;1.50;;
6420;SDS011;3243;50.958;7.012;2024-03-29T01:05:09;2.43;;;1.60;;
6420;SDS011;3243;50.958;7.012;2024-03-29T01:07:35;3.93;;;1.73;;
6420;SDS011;3243;50.958;7.012;2024-03-29T01:10:01;3.27;;;1.57;;
6420;SDS011;3243;50.958;7.012;2024-03-29T01:12:27;4.10;;;1.70;;
6420;SDS011;3243;50.958;7.012;2024-03-29T01:14:53;1.87;;;1.40;;
6420;SDS011;3243;50.958;7.012;2024-03-29T01:17:20;4.50;;;1.70;;
6420;SDS011;3243;50.958;7.012;2024-03-29T01:19:45;2.80;;;1.93;;
6420;SDS011;3243;50.958;7.012;2024-03-29T01:22:12;2.43;;;1.43;;
6420;SDS011;3243;50.958;7.012;2024-03-29T01:24:37;2.70;;;1.57;;
6420;SDS011;3243;50.958;7.012;2024-03-29T01:27:04;3.27;;;1.40;;
6420;SDS011;3243;50.958;7.012;2024-03-29T01:29:32;5.30;;;1.60;;
6420;SDS011;3243;50.958;7.012;2024-03-29T01:31:58;2.73;;;1.40;;
6420;SDS011;3243;50.958;7.012;2024-03-29T01:34:24;2.83;;;1.50;;
6420;SDS011;3243;50.958;7.012;2024-03-29T01:36:50;3.43;;;1.73;;
6420;SDS011;3243;50.958;7.012;2024-03-29T01:39:16;2.20;;;1.47;;
6420;SDS011;3243;50.958;7.012;2024-03-29T01:41:45;4.37;;;1.57;;
6420;SDS011;3243;50.958;7.012;2024-03-29T01:44:10;4.23;;;1.50;;
6420;SDS011;3243;50.958;7.012;2024-03-29T01:46:36;2.40;;;1.60;;
6420;SDS011;3243;50.958;7.012;2024-03-29T01:49:03;2.33;;;1.37;;
6420;SDS011;3243;50.958;7.012;2024-03-29T01:51:30;5.90;;;1.70;;
6420;SDS011;3243;50.958;7.012;2024-03-29T01:53:57;2.03;;;1.40;;
6420;SDS011;3243;50.958;7.012;2024-03-29T01:56:24;3.80;;;1.60;;
6420;SDS011;3243;50.958;7.012;2024-03-29T01:58:51;3.47;;;1.47;;
6420;SDS011;3243;50.958;7.012;2024-03-29T02:01:19;2.83;;;1.50;;
6420;SDS011;3243;50.958;7.012;2024-03-29T02:03:46;3.57;;;2.00;;
6420;SDS011;3243;50.958;7.012;2024-03-29T02:06:13;2.23;;;1.30;;
6420;SDS011;3243;50.958;7.012;2024-03-29T02:08:39;4.07;;;1.63;;
6420;SDS011;3243;50.958;7.012;2024-03-29T02:11:05;3.27;;;1.70;;
6420;SDS011;3243;50.958;7.012;2024-03-29T02:13:32;4.00;;;1.47;;
6420;SDS011;3243;50.958;7.012;2024-03-29T02:15:58;3.77;;;1.43;;
6420;SDS011;3243;50.958;7.012;2024-03-29T02:18:23;1.97;;;1.30;;
6420;SDS011;3243;50.958;7.012;2024-03-29T02:20:50;2.47;;;1.20;;
6420;SDS011;3243;50.958;7.012;2024-03-29T02:23:16;3.03;;;1.33;;
6420;SDS011;3243;50.958;7.012;2024-03-29T02:25:45;1.83;;;1.20;;
6420;SDS011;3243;50.958;7.012;2024-03-29T02:28:12;4.23;;;1.50;;
6420;SDS011;3243;50.958;7.012;2024-03-29T02:30:38;2.00;;;1.37;;
6420;SDS011;3243;50.958;7.012;2024-03-29T02:33:04;2.93;;;1.40;;
6420;SDS011;3243;50.958;7.012;2024-03-29T02:35:30;2.40;;;1.30;;
6420;SDS011;3243;50.958;7.012;2024-03-29T02:37:56;4.40;;;1.47;;
6420;SDS011;3243;50.958;7.012;2024-03-29T02:40:22;3.50;;;1.60;;
6420;SDS011;3243;50.958;7.012;2024-03-29T02:42:48;2.47;;;1.70;;
6420;SDS011;3243;50.958;7.012;2024-03-29T02:45:15;2.57;;;1.30;;
6420;SDS011;3243;50.958;7.012;2024-03-29T02:47:41;2.47;;;1.30;;
6420;SDS011;3243;50.958;7.012;2024-03-29T02:50:08;1.80;;;1.20;;
6420;SDS011;3243;50.958;7.012;2024-03-29T02:52:35;4.63;;;1.40;;
6420;SDS011;3243;50.958;7.012;2024-03-29T02:55:02;4.33;;;1.50;;
6420;SDS011;3243;50.958;7.012;2024-03-29T02:57:28;2.17;;;1.20;;
6420;SDS011;3243;50.958;7.012;2024-03-29T02:59:54;3.60;;;1.43;;
6420;SDS011;3243;50.958;7.012;2024-03-29T03:02:21;4.60;;;1.60;;
6420;SDS011;3243;50.958;7.012;2024-03-29T03:04:47;2.00;;;1.33;;
6420;SDS011;3243;50.958;7.012;2024-03-29T03:07:14;2.53;;;1.60;;
6420;SDS011;3243;50.958;7.012;2024-03-29T03:09:58;3.13;;;1.30;;
6420;SDS011;3243;50.958;7.012;2024-03-29T03:12:43;2.47;;;1.50;;
6420;SDS011;3243;50.958;7.012;2024-03-29T03:15:09;2.53;;;1.43;;
6420;SDS011;3243;50.958;7.012;2024-03-29T03:17:35;1.70;;;1.33;;
6420;SDS011;3243;50.958;7.012;2024-03-29T03:20:01;4.43;;;1.63;;
6420;SDS011;3243;50.958;7.012;2024-03-29T03:22:30;3.23;;;1.40;;
6420;SDS011;3243;50.958;7.012;2024-03-29T03:24:56;3.73;;;1.30;;
6420;SDS011;3243;50.958;7.012;2024-03-29T03:27:21;2.50;;;1.20;;
6420;SDS011;3243;50.958;7.012;2024-03-29T03:29:48;2.20;;;1.40;;
6420;SDS011;3243;50.958;7.012;2024-03-29T03:32:14;4.07;;;1.70;;
6420;SDS011;3243;50.958;7.012;2024-03-29T03:34:40;2.17;;;1.40;;
6420;SDS011;3243;50.958;7.012;2024-03-29T03:37:06;2.13;;;1.40;;
6420;SDS011;3243;50.958;7.012;2024-03-29T03:39:32;3.13;;;1.93;;
6420;SDS011;3243;50.958;7.012;2024-03-29T03:41:58;5.37;;;1.40;;
6420;SDS011;3243;50.958;7.012;2024-03-29T03:44:24;2.97;;;1.30;;
6420;SDS011;3243;50.958;7.012;2024-03-29T03:46:51;2.77;;;1.47;;
6420;SDS011;3243;50.958;7.012;2024-03-29T03:49:17;7.40;;;1.50;;
6420;SDS011;3243;50.958;7.012;2024-03-29T03:51:43;3.60;;;1.50;;
6420;SDS011;3243;50.958;7.012;2024-03-29T03:54:09;2.87;;;1.57;;
6420;SDS011;3243;50.958;7.012;2024-03-29T03:56:35;4.00;;;1.53;;
6420;SDS011;3243;50.958;7.012;2024-03-29T03:59:01;4.17;;;1.60;;
6420;SDS011;3243;50.958;7.012;2024-03-29T04:01:27;2.87;;;1.40;;
6420;SDS011;3243;50.958;7.012;2024-03-29T04:03:53;4.13;;;1.47;;
6420;SDS011;3243;50.958;7.012;2024-03-29T04:06:19;2.37;;;1.40;;
6420;SDS011;3243;50.958;7.012;2024-03-29T04:08:45;1.80;;;1.33;;
6420;SDS011;3243;50.958;7.012;2024-03-29T04:11:11;3.10;;;1.23;;
6420;SDS011;3243;50.958;7.012;2024-03-29T04:13:37;3.37;;;1.50;;
6420;SDS011;3243;50.958;7.012;2024-03-29T04:16:06;3.10;;;1.53;;
6420;SDS011;3243;50.958;7.012;2024-03-29T04:18:32;2.03;;;1.20;;
6420;SDS011;3243;50.958;7.012;2024-03-29T04:20:59;1.60;;;1.20;;
6420;SDS011;3243;50.958;7.012;2024-03-29T04:23:26;4.23;;;1.53;;
6420;SDS011;3243;50.958;7.012;2024-03-29T04:25:52;5.77;;;1.50;;
6420;SDS011;3243;50.958;7.012;2024-03-29T04:28:18;4.17;;;1.50;;
6420;SDS011;3243;50.958;7.012;2024-03-29T04:31:17;3.87;;;2.10;;
6420;SDS011;3243;50.958;7.012;2024-03-29T04:33:37;2.83;;;1.40;;
6420;SDS011;3243;50.958;7.012;2024-03-29T04:36:03;1.40;;;1.23;;
6420;SDS011;3243;50.958;7.012;2024-03-29T04:38:30;3.43;;;1.70;;
6420;SDS011;3243;50.958;7.012;2024-03-29T04:40:57;3.03;;;1.43;;
6420;SDS011;3243;50.958;7.012;2024-03-29T04:43:27;5.73;;;1.50;;
6420;SDS011;3243;50.958;7.012;2024-03-29T04:46:08;4.53;;;1.63;;
6420;SDS011;3243;50.958;7.012;2024-03-29T04:48:37;3.17;;;1.43;;
6420;SDS011;3243;50.958;7.012;2024-03-29T04:51:03;2.70;;;1.50;;
6420;SDS011;3243;50.958;7.012;2024-03-29T04:53:30;2.23;;;1.47;;
6420;SDS011;3243;50.958;7.012;2024-03-29T04:55:57;2.00;;;1.50;;
6420;SDS011;3243;50.958;7.012;2024-03-29T04:58:24;4.60;;;1.50;;
6420;SDS011;3243;50.958;7.012;2024-03-29T05:00:50;1.90;;;1.40;;
6420;SDS011;3243;50.958;7.012;2024-03-29T05:03:17;2.73;;;1.50;;
6420;SDS011;3243;50.958;7.012;2024-03-29T05:05:44;2.07;;;1.30;;
6420;SDS011;3243;50.958;7.012;2024-03-29T05:08:10;4.67;;;1.30;;
6420;SDS011;3243;50.958;7.012;2024-03-29T05:10:37;1.73;;;1.33;;
6420;SDS011;3243;50.958;7.012;2024-03-29T05:13:03;2.93;;;1.70;;
6420;SDS011;3243;50.958;7.012;2024-03-29T05:15:29;2.63;;;1.60;;
6420;SDS011;3243;50.958;7.012;2024-03-29T05:17:55;4.30;;;1.50;;
6420;SDS011;3243;50.958;7.012;2024-03-29T05:20:21;4.17;;;1.50;;
6420;SDS011;3243;50.958;7.012;2024-03-29T05:22:47;2.60;;;1.57;;
6420;SDS011;3243;50.958;7.012;2024-03-29T05:25:13;4.83;;;1.53;;
6420;SDS011;3243;50.958;7.012;2024-03-29T05:27:40;2.37;;;1.40;;
6420;SDS011;3243;50.958;7.012;2024-03-29T05:30:06;2.87;;;1.50;;
6420;SDS011;3243;50.958;7.012;2024-03-29T05:32:35;2.90;;;1.33;;
6420;SDS011;3243;50.958;7.012;2024-03-29T05:35:01;2.10;;;1.50;;
6420;SDS011;3243;50.958;7.012;2024-03-29T05:37:27;4.33;;;1.60;;
6420;SDS011;3243;50.958;7.012;2024-03-29T05:39:54;2.40;;;1.40;;
6420;SDS011;3243;50.958;7.012;2024-03-29T05:42:30;2.13;;;1.40;;
6420;SDS011;3243;50.958;7.012;2024-03-29T05:44:58;2.37;;;1.63;;
6420;SDS011;3243;50.958;7.012;2024-03-29T05:47:24;1.67;;;1.47;;
6420;SDS011;3243;50.958;7.012;2024-03-29T05:49:50;2.63;;;1.50;;
6420;SDS011;3243;50.958;7.012;2024-03-29T05:52:23;1.70;;;1.50;;
6420;SDS011;3243;50.958;7.012;2024-03-29T05:55:00;3.23;;;1.30;;
6420;SDS011;3243;50.958;7.012;2024-03-29T05:57:31;4.57;;;1.53;;
6420;SDS011;3243;50.958;7.012;2024-03-29T05:59:59;3.63;;;1.60;;
6420;SDS011;3243;50.958;7.012;2024-03-29T06:02:25;2.03;;;1.30;;
6420;SDS011;3243;50.958;7.012;2024-03-29T06:04:51;4.20;;;1.50;;
6420;SDS011;3243;50.958;7.012;2024-03-29T06:07:17;5.70;;;1.80;;
6420;SDS011;3243;50.958;7.012;2024-03-29T06:09:42;2.40;;;1.20;;
6420;SDS011;3243;50.958;7.012;2024-03-29T06:12:09;4.17;;;1.77;;
6420;SDS011;3243;50.958;7.012;2024-03-29T06:14:36;2.73;;;1.60;;
6420;SDS011;3243;50.958;7.012;2024-03-29T06:17:21;1.70;;;1.60;;
6420;SDS011;3243;50.958;7.012;2024-03-29T06:19:51;3.90;;;1.80;;
6420;SDS011;3243;50.958;7.012;2024-03-29T06:22:20;4.77;;;1.77;;
6420;SDS011;3243;50.958;7.012;2024-03-29T06:24:46;1.90;;;1.63;;
6420;SDS011;3243;50.958;7.012;2024-03-29T06:27:13;6.43;;;1.77;;
6420;SDS011;3243;50.958;7.012;2024-03-29T06:29:46;1.70;;;1.60;;
6420;SDS011;3243;50.958;7.012;2024-03-29T06:32:12;2.53;;;1.80;;
6420;SDS011;3243;50.958;7.012;2024-03-29T06:34:38;2.10;;;1.67;;
6420;SDS011;3243;50.958;7.012;2024-03-29T06:37:04;4.83;;;1.70;;
6420;SDS011;3243;50.958;7.012;2024-03-29T06:39:30;2.33;;;1.63;;
6420;SDS011;3243;50.958;7.012;2024-03-29T06:41:56;4.30;;;1.80;;
6420;SDS011;3243;50.958;7.012;2024-03-29T06:44:23;3.23;;;1.80;;
6420;SDS011;3243;50.958;7.012;2024-03-29T06:46:48;3.83;;;1.70;;
6420;SDS011;3243;50.958;7.012;2024-03-29T06:49:14;4.67;;;1.80;;
6420;SDS011;3243;50.958;7.012;2024-03-29T06:51:40;2.17;;;1.80;;
6420;SDS011;3243;50.958;7.012;2024-03-29T06:54:06;3.23;;;1.70;;
6420;SDS011;3243;50.958;7.012;2024-03-29T06:56:32;2.77;;;1.50;;
6420;SDS011;3243;50.958;7.012;2024-03-29T06:58:58;3.63;;;2.07;;
6420;SDS011;3243;50.958;7.012;2024-03-29T07:01:25;3.80;;;2.27;;
6420;SDS011;3243;50.958;7.012;2024-03-29T07:03:50;2.17;;;1.67;;
6420;SDS011;3243;50.958;7.012;2024-03-29T07:06:17;3.33;;;1.37;;
6420;SDS011;3243;50.958;7.012;2024-03-29T07:08:43;3.80;;;1.97;;
6420;SDS011;3243;50.958;7.012;2024-03-29T07:11:09;2.03;;;1.60;;
6420;SDS011;3243;50.958;7.012;2024-03-29T07:13:38;3.27;;;1.70;;
6420;SDS011;3243;50.958;7.012;2024-03-29T07:16:04;3.10;;;1.40;;
6420;SDS011;3243;50.958;7.012;2024-03-29T07:18:32;2.03;;;1.40;;
6420;SDS011;3243;50.958;7.012;2024-03-29T07:20:58;3.53;;;1.50;;
6420;SDS011;3243;50.958;7.012;2024-03-29T07:23:24;3.57;;;1.70;;
6420;SDS011;3243;50.958;7.012;2024-03-29T07:26:00;2.00;;;1.60;;
6420;SDS011;3243;50.958;7.012;2024-03-29T07:28:28;3.33;;;1.57;;
6420;SDS011;3243;50.958;7.012;2024-03-29T07:30:54;2.43;;;1.60;;
6420;SDS011;3243;50.958;7.012;2024-03-29T07:33:20;2.70;;;1.70;;
6420;SDS011;3243;50.958;7.012;2024-03-29T07:35:51;3.47;;;1.70;;
6420;SDS011;3243;50.958;7.012;2024-03-29T07:38:18;4.20;;;1.50;;
6420;SDS011;3243;50.958;7.012;2024-03-29T07:40:46;3.47;;;1.57;;
6420;SDS011;3243;50.958;7.012;2024-03-29T07:43:13;3.17;;;1.80;;
6420;SDS011;3243;50.958;7.012;2024-03-29T07:45:42;1.97;;;1.63;;
6420;SDS011;3243;50.958;7.012;2024-03-29T07:48:11;2.63;;;1.50;;
6420;SDS011;3243;50.958;7.012;2024-03-29T07:50:45;2.53;;;1.50;;
6420;SDS011;3243;50.958;7.012;2024-03-29T07:53:11;2.10;;;1.40;;
6420;SDS011;3243;50.958;7.012;2024-03-29T07:55:38;2.60;;;1.50;;
6420;SDS011;3243;50.958;7.012;2024-03-29T07:58:05;1.80;;;1.60;;
6420;SDS011;3243;50.958;7.012;2024-03-29T08:00:34;3.00;;;1.40;;
6420;SDS011;3243;50.958;7.012;2024-03-29T08:03:01;3.43;;;1.50;;
6420;SDS011;3243;50.958;7.012;2024-03-29T08:05:27;2.30;;;1.40;;
6420;SDS011;3243;50.958;7.012;2024-03-29T08:07:53;4.77;;;1.70;;
6420;SDS011;3243;50.958;7.012;2024-03-29T08:10:20;2.97;;;1.50;;
6420;SDS011;3243;50.958;7.012;2024-03-29T08:12:46;2.73;;;1.90;;
6420;SDS011;3243;50.958;7.012;2024-03-29T08:15:12;1.60;;;1.37;;
6420;SDS011;3243;50.958;7.012;2024-03-29T08:17:38;1.43;;;1.33;;
6420;SDS011;3243;50.958;7.012;2024-03-29T08:20:04;2.43;;;1.50;;
6420;SDS011;3243;50.958;7.012;2024-03-29T08:22:30;2.50;;;1.50;;
6420;SDS011;3243;50.958;7.012;2024-03-29T08:24:58;2.07;;;1.30;;
6420;SDS011;3243;50.958;7.012;2024-03-29T08:27:28;1.93;;;1.30;;
6420;SDS011;3243;50.958;7.012;2024-03-29T08:29:54;2.03;;;1.30;;
6420;SDS011;3243;50.958;7.012;2024-03-29T08:32:20;1.63;;;1.40;;
6420;SDS011;3243;50.958;7.012;2024-03-29T08:34:46;1.87;;;1.30;;
6420;SDS011;3243;50.958;7.012;2024-03-29T08:37:12;2.23;;;1.20;;
6420;SDS011;3243;50.958;7.012;2024-03-29T08:39:38;2.53;;;1.53;;
6420;SDS011;3243;50.958;7.012;2024-03-29T08:42:04;1.80;;;1.20;;
6420;SDS011;3243;50.958;7.012;2024-03-29T08:44:32;1.93;;;1.40;;
6420;SDS011;3243;50.958;7.012;2024-03-29T08:46:58;1.50;;;1.30;;
6420;SDS011;3243;50.958;7.012;2024-03-29T08:49:29;1.30;;;1.20;;
6420;SDS011;3243;50.958;7.012;2024-03-29T08:51:56;2.40;;;1.80;;
6420;SDS011;3243;50.958;7.012;2024-03-29T08:54:22;7.73;;;4.03;;
6420;SDS011;3243;50.958;7.012;2024-03-29T08:56:48;6.47;;;3.40;;
6420;SDS011;3243;50.958;7.012;2024-03-29T08:59:14;8.10;;;4.30;;
6420;SDS011;3243;50.958;7.012;2024-03-29T09:01:44;6.33;;;5.30;;
6420;SDS011;3243;50.958;7.012;2024-03-29T09:04:11;2.67;;;2.10;;
6420;SDS011;3243;50.958;7.012;2024-03-29T09:06:37;2.17;;;1.73;;
6420;SDS011;3243;50.958;7.012;2024-03-29T09:09:06;1.90;;;1.60;;
6420;SDS011;3243;50.958;7.012;2024-03-29T09:11:33;1.97;;;1.60;;
6420;SDS011;3243;50.958;7.012;2024-03-29T09:13:59;1.60;;;1.40;;
6420;SDS011;3243;50.958;7.012;2024-03-29T09:16:26;2.30;;;1.40;;
6420;SDS011;3243;50.958;7.012;2024-03-29T09:18:56;3.53;;;1.30;;
6420;SDS011;3243;50.958;7.012;2024-03-29T09:21:22;2.40;;;1.80;;
6420;SDS011;3243;50.958;7.012;2024-03-29T09:23:48;4.13;;;3.30;;
6420;SDS011;3243;50.958;7.012;2024-03-29T09:26:16;5.37;;;3.67;;
6420;SDS011;3243;50.958;7.012;2024-03-29T09:28:42;5.20;;;2.30;;
6420;SDS011;3243;50.958;7.012;2024-03-29T09:31:08;2.63;;;1.90;;
6420;SDS011;3243;50.958;7.012;2024-03-29T09:33:34;2.97;;;1.50;;
6420;SDS011;3243;50.958;7.012;2024-03-29T09:36:00;2.07;;;1.43;;
6420;SDS011;3243;50.958;7.012;2024-03-29T09:38:26;4.40;;;1.50;;
6420;SDS011;3243;50.958;7.012;2024-03-29T09:41:10;1.40;;;1.17;;
6420;SDS011;3243;50.958;7.012;2024-03-29T09:43:43;1.00;;;1.00;;
6420;SDS011;3243;50.958;7.012;2024-03-29T09:46:10;1.40;;;1.30;;
6420;SDS011;3243;50.958;7.012;2024-03-29T09:48:39;1.33;;;1.13;;
6420;SDS011;3243;50.958;7.012;2024-03-29T09:51:06;1.93;;;1.10;;
6420;SDS011;3243;50.958;7.012;2024-03-29T09:53:36;3.90;;;1.20;;
6420;SDS011;3243;50.958;7.012;2024-03-29T09:56:06;1.77;;;1.20;;
6420;SDS011;3243;50.958;7.012;2024-03-29T09:58:32;1.23;;;1.00;;
6420;SDS011;3243;50.958;7.012;2024-03-29T10:01:00;2.90;;;1.47;;
6420;SDS011;3243;50.958;7.012;2024-03-29T10:03:30;2.13;;;1.30;;
6420;SDS011;3243;50.958;7.012;2024-03-29T10:06:00;1.53;;;1.00;;
6420;SDS011;3243;50.958;7.012;2024-03-29T10:08:26;1.33;;;1.00;;
6420;SDS011;3243;50.958;7.012;2024-03-29T10:10:56;2.07;;;1.30;;
6420;SDS011;3243;50.958;7.012;2024-03-29T10:13:23;1.47;;;1.10;;
6420;SDS011;3243;50.958;7.012;2024-03-29T10:15:52;1.37;;;1.10;;
6420;SDS011;3243;50.958;7.012;2024-03-29T10:18:21;1.20;;;1.10;;
6420;SDS011;3243;50.958;7.012;2024-03-29T10:21:01;1.23;;;1.07;;
6420;SDS011;3243;50.958;7.012;2024-03-29T10:23:28;1.13;;;1.03;;
6420;SDS011;3243;50.958;7.012;2024-03-29T10:25:55;1.33;;;1.20;;
6420;SDS011;3243;50.958;7.012;2024-03-29T10:28:22;1.30;;;1.20;;
6420;SDS011;3243;50.958;7.012;2024-03-29T10:30:48;2.03;;;1.20;;
6420;SDS011;3243;50.958;7.012;2024-03-29T10:33:15;1.23;;;1.10;;
6420;SDS011;3243;50.958;7.012;2024-03-29T10:35:45;1.20;;;1.10;;
6420;SDS011;3243;50.958;7.012;2024-03-29T10:38:11;1.60;;;1.10;;
6420;SDS011;3243;50.958;7.012;2024-03-29T10:40:38;1.27;;;1.17;;
6420;SDS011;3243;50.958;7.012;2024-03-29T10:43:10;1.40;;;1.10;;
6420;SDS011;3243;50.958;7.012;2024-03-29T10:45:41;1.60;;;1.10;;
6420;SDS011;3243;50.958;7.012;2024-03-29T10:48:08;1.30;;;1.20;;
6420;SDS011;3243;50.958;7.012;2024-03-29T10:50:38;1.50;;;0.90;;
6420;SDS011;3243;50.958;7.012;2024-03-29T10:53:06;1.57;;;1.00;;
6420;SDS011;3243;50.958;7.012;2024-03-29T10:55:33;2.00;;;1.33;;
6420;SDS011;3243;50.958;7.012;2024-03-29T10:58:03;1.50;;;1.07;;
6420;SDS011;3243;50.958;7.012;2024-03-29T11:00:33;1.90;;;1.00;;
6420;SDS011;3243;50.958;7.012;2024-03-29T11:05:40;1.20;;;1.10;;
6420;SDS011;3243;50.958;7.012;2024-03-29T11:08:10;2.73;;;1.20;;
6420;SDS011;3243;50.958;7.012;2024-03-29T11:10:39;1.43;;;1.00;;
6420;SDS011;3243;50.958;7.012;2024-03-29T11:15:55;0.90;;;0.90;;
6420;SDS011;3243;50.958;7.012;2024-03-29T11:18:21;1.50;;;1.10;;
6420;SDS011;3243;50.958;7.012;2024-03-29T11:20:49;1.30;;;1.20;;
6420;SDS011;3243;50.958;7.012;2024-03-29T11:23:18;1.20;;;1.10;;
6420;SDS011;3243;50.958;7.012;2024-03-29T11:25:46;2.00;;;1.30;;
6420;SDS011;3243;50.958;7.012;2024-03-29T11:28:28;2.37;;;1.20;;
6420;SDS011;3243;50.958;7.012;2024-03-29T11:31:03;2.93;;;1.30;;
6420;SDS011;3243;50.958;7.012;2024-03-29T11:33:34;1.73;;;1.37;;
6420;SDS011;3243;50.958;7.012;2024-03-29T11:39:06;1.43;;;1.23;;
6420;SDS011;3243;50.958;7.012;2024-03-29T11:41:33;3.67;;;1.90;;
6420;SDS011;3243;50.958;7.012;2024-03-29T11:43:59;2.00;;;1.30;;
6420;SDS011;3243;50.958;7.012;2024-03-29T11:46:25;2.13;;;1.00;;
6420;SDS011;3243;50.958;7.012;2024-03-29T11:48:52;1.50;;;1.13;;
6420;SDS011;3243;50.958;7.012;2024-03-29T11:51:19;2.13;;;1.20;;
6420;SDS011;3243;50.958;7.012;2024-03-29T11:53:49;3.80;;;1.50;;
6420;SDS011;3243;50.958;7.012;2024-03-29T11:56:18;2.77;;;1.30;;
6420;SDS011;3243;50.958;7.012;2024-03-29T11:58:45;1.30;;;1.10;;
6420;SDS011;3243;50.958;7.012;2024-03-29T12:01:13;1.07;;;0.97;;
6420;SDS011;3243;50.958;7.012;2024-03-29T12:03:40;1.33;;;1.00;;
6420;SDS011;3243;50.958;7.012;2024-03-29T12:06:07;1.00;;;1.00;;
6420;SDS011;3243;50.958;7.012;2024-03-29T12:08:40;1.70;;;1.23;;
6420;SDS011;3243;50.958;7.012;2024-03-29T12:11:07;2.37;;;1.20;;
6420;SDS011;3243;50.958;7.012;2024-03-29T12:13:33;1.70;;;1.20;;
6420;SDS011;3243;50.958;7.012;2024-03-29T12:16:00;1.30;;;1.00;;
6420;SDS011;3243;50.958;7.012;2024-03-29T12:18:26;1.13;;;1.00;;
6420;SDS011;3243;50.958;7.012;2024-03-29T12:21:00;1.23;;;0.90;;
6420;SDS011;3243;50.958;7.012;2024-03-29T12:23:26;1.40;;;1.30;;
6420;SDS011;3243;50.958;7.012;2024-03-29T12:25:54;1.10;;;1.03;;
6420;SDS011;3243;50.958;7.012;2024-03-29T12:28:22;1.53;;;1.10;;
6420;SDS011;3243;50.958;7.012;2024-03-29T12:30:49;1.17;;;1.03;;
6420;SDS011;3243;50.958;7.012;2024-03-29T12:33:19;2.00;;;1.27;;
6420;SDS011;3243;50.958;7.012;2024-03-29T12:35:46;1.13;;;1.00;;
6420;SDS011;3243;50.958;7.012;2024-03-29T12:38:14;1.90;;;1.50;;
6420;SDS011;3243;50.958;7.012;2024-03-29T12:40:42;3.17;;;1.47;;
6420;SDS011;3243;50.958;7.012;2024-03-29T12:43:09;1.80;;;1.10;;
6420;SDS011;3243;50.958;7.012;2024-03-29T12:45:36;1.37;;;1.27;;
6420;SDS011;3243;50.958;7.012;2024-03-29T12:48:24;1.47;;;1.10;;
6420;SDS011;3243;50.958;7.012;2024-03-29T12:50:51;1.40;;;1.30;;
6420;SDS011;3243;50.958;7.012;2024-03-29T12:53:18;2.80;;;1.40;;
6420;SDS011;3243;50.958;7.012;2024-03-29T12:55:46;1.97;;;1.50;;
6420;SDS011;3243;50.958;7.012;2024-03-29T12:58:13;1.00;;;1.00;;
6420;SDS011;3243;50.958;7.012;2024-03-29T13:00:41;1.43;;;1.33;;
6420;SDS011;3243;50.958;7.012;2024-03-29T13:03:07;1.30;;;1.10;;
6420;SDS011;3243;50.958;7.012;2024-03-29T13:05:34;1.07;;;1.07;;
6420;SDS011;3243;50.958;7.012;2024-03-29T13:08:05;1.53;;;1.20;;
6420;SDS011;3243;50.958;7.012;2024-03-29T13:10:36;1.20;;;0.90;;
6420;SDS011;3243;50.958;7.012;2024-03-29T13:13:04;0.97;;;0.93;;
6420;SDS011;3243;50.958;7.012;2024-03-29T13:15:32;2.03;;;1.30;;
6420;SDS011;3243;50.958;7.012;2024-03-29T13:18:02;1.27;;;1.00;;
6420;SDS011;3243;50.958;7.012;2024-03-29T13:20:29;1.80;;;0.93;;
6420;SDS011;3243;50.958;7.012;2024-03-29T13:22:55;0.93;;;0.90;;
6420;SDS011;3243;50.958;7.012;2024-03-29T13:25:23;1.67;;;1.33;;
6420;SDS011;3243;50.958;7.012;2024-03-29T13:27:50;1.33;;;1.20;;
6420;SDS011;3243;50.958;7.012;2024-03-29T13:30:24;2.30;;;1.07;;
6420;SDS011;3243;50.958;7.012;2024-03-29T13:32:51;1.33;;;1.00;;
6420;SDS011;3243;50.958;7.012;2024-03-29T13:35:18;1.30;;;1.10;;
6420;SDS011;3243;50.958;7.012;2024-03-29T13:37:47;1.73;;;1.10;;
6420;SDS011;3243;50.958;7.012;2024-03-29T13:40:15;1.03;;;1.00;;
6420;SDS011;3243;50.958;7.012;2024-03-29T13:42:42;1.27;;;1.10;;
6420;SDS011;3243;50.958;7.012;2024-03-29T13:45:08;1.20;;;1.10;;
6420;SDS011;3243;50.958;7.012;2024-03-29T13:47:39;1.57;;;1.10;;
6420;SDS011;3243;50.958;7.012;2024-03-29T13:50:06;1.13;;;1.10;;
6420;SDS011;3243;50.958;7.012;2024-03-29T13:52:33;1.37;;;1.27;;
6420;SDS011;3243;50.958;7.012;2024-03-29T13:55:00;1.77;;;1.00;;
6420;SDS011;3243;50.958;7.012;2024-03-29T13:57:27;1.40;;;1.30;;
6420;SDS011;3243;50.958;7.012;2024-03-29T13:59:54;1.53;;;1.20;;
6420;SDS011;3243;50.958;7.012;2024-03-29T14:02:20;1.20;;;1.00;;
6420;SDS011;3243;50.958;7.012;2024-03-29T14:04:48;1.27;;;1.17;;
6420;SDS011;3243;50.958;7.012;2024-03-29T14:07:15;1.30;;;1.00;;
6420;SDS011;3243;50.958;7.012;2024-03-29T14:09:46;1.73;;;1.20;;
6420;SDS011;3243;50.958;7.012;2024-03-29T14:12:12;3.20;;;1.17;;
6420;SDS011;3243;50.958;7.012;2024-03-29T14:14:39;1.93;;;1.20;;
6420;SDS011;3243;50.958;7.012;2024-03-29T14:17:06;4.17;;;1.00;;
6420;SDS011;3243;50.958;7.012;2024-03-29T14:19:34;1.50;;;1.03;;
6420;SDS011;3243;50.958;7.012;2024-03-29T14:22:01;1.10;;;1.00;;
6420;SDS011;3243;50.958;7.012;2024-03-29T14:24:28;1.53;;;1.20;;
6420;SDS011;3243;50.958;7.012;2024-03-29T14:26:56;1.37;;;1.20;;
6420;SDS011;3243;50.958;7.012;2024-03-29T14:29:22;1.97;;;1.50;;
6420;SDS011;3243;50.958;7.012;2024-03-29T14:31:48;1.20;;;1.10;;
6420;SDS011;3243;50.958;7.012;2024-03-29T14:34:15;1.23;;;1.13;;
6420;SDS011;3243;50.958;7.012;2024-03-29T14:36:41;5.97;;;2.43;;
6420;SDS011;3243;50.958;7.012;2024-03-29T14:39:08;1.40;;;1.30;;
6420;SDS011;3243;50.958;7.012;2024-03-29T14:41:34;1.50;;;1.40;;
6420;SDS011;3243;50.958;7.012;2024-03-29T14:44:02;1.30;;;0.90;;
6420;SDS011;3243;50.958;7.012;2024-03-29T14:46:28;2.40;;;1.13;;
6420;SDS011;3243;50.958;7.012;2024-03-29T14:48:54;1.20;;;1.10;;
6420;SDS011;3243;50.958;7.012;2024-03-29T14:51:20;1.20;;;1.10;;
6420;SDS011;3243;50.958;7.012;2024-03-29T14:53:46;1.20;;;1.10;;
6420;SDS011;3243;50.958;7.012;2024-03-29T14:56:18;1.10;;;1.00;;
6420;SDS011;3243;50.958;7.012;2024-03-29T14:58:44;1.47;;;1.20;;
6420;SDS011;3243;50.958;7.012;2024-03-29T15:01:10;1.83;;;1.00;;
6420;SDS011;3243;50.958;7.012;2024-03-29T15:03:36;1.37;;;1.10;;
6420;SDS011;3243;50.958;7.012;2024-03-29T15:06:02;1.00;;;1.00;;
6420;SDS011;3243;50.958;7.012;2024-03-29T15:08:29;1.80;;;1.30;;
6420;SDS011;3243;50.958;7.012;2024-03-29T15:10:59;1.90;;;1.30;;
6420;SDS011;3243;50.958;7.012;2024-03-29T15:13:26;1.30;;;1.20;;
6420;SDS011;3243;50.958;7.012;2024-03-29T15:15:55;1.50;;;1.30;;
6420;SDS011;3243;50.958;7.012;2024-03-29T15:18:22;1.60;;;1.40;;
6420;SDS011;3243;50.958;7.012;2024-03-29T15:20:58;1.60;;;1.30;;
6420;SDS011;3243;50.958;7.012;2024-03-29T15:23:25;1.55;;;1.10;;
6420;SDS011;3243;50.958;7.012;2024-03-29T15:25:52;1.87;;;1.17;;